Latest Weather Observations for North Island

IDW60801

Issued at 10:33 pm WST Friday 23 April 2021 (issued every 10 minutes, with the page automatically refreshed every 10 minutes)

About weather observations | Map of weather stations | Latest weather observations for WA | Other Formats
Station Details ID: 008290 Name: NORTH ISLAND Lat: -28.30 Lon: 113.59 Height: 2.2 m
Data from the previous 72 hours. | See also: Recent months at North Island
Date/Time
WST
Temp
°C
App
Temp
°C
Dew
Point
°C
Rel
Hum
%
Delta-T
°C
Wind Press
QNH
hPa
Press
MSL
hPa
Rain since
9am
mm
Dir  Spd
km/h
Gust
km/h
Spd
kts
Gust
kts
23/10:30pm 23.6 21.2 18.3 72 3.3 S 28 32 15 17 1018.0 1018.0 0.0
23/10:00pm 23.7 22.1 18.4 72 3.3 S 24 28 13 15 1018.3 1018.3 0.0
23/09:30pm 23.7 21.8 17.7 69 3.7 S 24 30 13 16 1018.3 1018.3 0.0
23/09:00pm 23.8 22.1 18.2 71 3.5 S 24 30 13 16 1018.2 1018.2 0.0
23/08:30pm 23.8 22.5 19.1 75 3.0 SSW 24 30 13 16 1018.2 1018.2 0.0
23/08:00pm 23.9 23.3 20.4 81 2.3 SSW 24 28 13 15 1018.0 1018.0 0.0
23/07:30pm 24.2 23.9 19.5 75 3.0 S 20 26 11 14 1017.8 1017.8 0.0
23/07:00pm 24.0 23.1 18.2 70 3.6 S 20 24 11 13 1017.5 1017.5 0.0
23/06:30pm 24.1 23.4 18.7 72 3.4 S 20 24 11 13 1017.0 1017.0 0.0
23/06:00pm 24.2 23.2 17.9 68 3.9 S 20 24 11 13 1016.8 1016.8 0.0
23/05:30pm 24.4 23.1 18.1 68 4.0 S 22 26 12 14 1016.7 1016.7 0.0
23/05:00pm 24.8 24.6 19.8 74 3.2 S 20 24 11 13 1016.6 1016.6 0.0
23/04:30pm 25.1 25.4 20.4 75 3.1 S 19 22 10 12 1016.3 1016.3 0.0
23/04:00pm 25.5 26.3 21.4 78 2.7 S 19 22 10 12 1016.0 1016.0 0.0
23/03:30pm 25.8 26.3 20.1 71 3.7 S 17 20 9 11 1016.0 1016.0 0.0
23/03:00pm 26.6 25.6 15.6 50 6.7 S 15 17 8 9 1016.0 1016.0 0.0
23/02:30pm 27.3 27.9 18.6 59 5.6 S 13 17 7 9 1016.0 1016.0 0.0
23/02:00pm 27.5 26.9 14.5 45 7.8 S 11 15 6 8 1016.0 1016.0 0.0
23/01:30pm 26.1 26.5 17.2 58 5.5 S 11 13 6 7 1016.3 1016.3 0.0
23/01:00pm 26.9 28.3 17.4 56 6.0 S 6 9 3 5 1016.6 1016.6 0.0
23/12:30pm 27.4 27.7 13.4 42 8.3 NE 4 9 2 5 1017.0 1017.0 0.0
23/12:00pm 27.2 28.7 19.0 61 5.3 NE 9 13 5 7 1017.3 1017.3 0.0
23/11:30am 26.3 26.9 16.8 56 5.9 E 9 11 5 6 1017.6 1017.6 0.0
23/11:00am 25.6 26.7 18.8 66 4.3 E 11 13 6 7 1017.6 1017.6 0.0
23/10:30am 25.3 26.2 19.2 69 3.9 ESE 13 15 7 8 1017.4 1017.4 0.0
23/10:00am 25.3 26.7 20.3 74 3.3 E 13 15 7 8 1017.6 1017.6 0.0
23/09:30am 25.7 27.3 21.4 77 2.8 E 15 17 8 9 1017.6 1017.6 0.0
23/09:00am 24.4 25.9 21.3 83 2.0 E 15 17 8 9 1017.7 1017.7 0.0
23/08:30am 24.1 25.2 21.2 84 1.9 ESE 17 20 9 11 1017.7 1017.7 0.0
23/08:00am 23.7 25.4 21.6 88 1.4 ESE 15 19 8 10 1017.6 1017.6 0.0
23/07:30am 22.9 24.3 21.0 89 1.2 ESE 15 19 8 10 1017.4 1017.4 0.0
23/07:00am 22.6 23.8 20.7 89 1.2 SE 15 17 8 9 1017.3 1017.3 0.0
23/06:30am 22.7 23.5 20.6 88 1.4 SE 17 20 9 11 1017.3 1017.3 0.0
23/06:00am 22.8 23.2 20.7 88 1.4 SE 19 24 10 13 1017.0 1017.0 0.0
23/05:30am 22.8 23.2 20.7 88 1.4 ESE 19 24 10 13 1016.8 1016.8 0.0
23/05:00am 22.8 23.1 20.7 88 1.4 SE 20 24 11 13 1016.6 1016.6 0.0
23/04:30am 22.7 23.4 20.4 87 1.5 SE 17 22 9 12 1016.8 1016.8 0.0
23/04:00am 22.8 23.4 20.3 86 1.6 SE 17 20 9 11 1017.0 1017.0 0.0
23/03:30am 22.7 23.5 19.9 84 1.8 SE 15 19 8 10 1017.1 1017.1 0.0
23/03:00am 22.8 22.8 19.8 83 1.9 SE 19 22 10 12 1017.2 1017.2 0.0
23/02:30am 23.0 23.0 19.8 82 2.1 SE 19 24 10 13 1017.3 1017.3 0.0
23/02:00am 22.9 22.1 19.3 80 2.3 SE 22 28 12 15 1017.4 1017.4 0.0
23/01:30am 22.9 22.0 19.1 79 2.4 SE 22 26 12 14 1017.6 1017.6 0.0
23/01:00am 22.9 22.0 19.1 79 2.4 SE 22 30 12 16 1017.7 1017.7 0.0
23/12:30am 23.0 21.4 19.2 79 2.4 SE 26 33 14 18 1017.7 1017.7 0.0
23/12:00am 23.1 21.9 19.3 79 2.4 SE 24 30 13 16 1018.0 1018.0 0.0
 
Date/Time
WST
Temp
°C
App
Temp
°C
Dew
Point
°C
Rel
Hum
%
Delta-T
°C
Wind Press
QNH
hPa
Press
MSL
hPa
Rain since
9am
mm
Dir  Spd
km/h
Gust
km/h
Spd
kts
Gust
kts
22/11:30pm 23.1 21.2 18.6 76 2.8 SE 26 33 14 18 1018.0 1018.0 0.0
22/11:00pm 23.1 21.2 18.6 76 2.8 SSE 26 32 14 17 1018.3 1018.3 0.0
22/10:30pm 23.4 20.7 18.5 74 3.1 SSE 30 37 16 20 1018.3 1018.3 0.0
22/10:00pm 23.4 20.9 18.1 72 3.3 SSE 28 33 15 18 1018.7 1018.7 0.0
22/09:30pm 23.5 20.7 17.3 68 3.8 SSE 28 32 15 17 1018.6 1018.6 0.0
22/09:00pm 23.4 21.2 17.8 71 3.5 SSE 26 32 14 17 1018.8 1018.8 0.0
22/08:30pm 23.4 21.2 17.8 71 3.5 SSE 26 32 14 17 1018.8 1018.8 0.0
22/08:00pm 23.4 21.5 17.6 70 3.6 SSE 24 32 13 17 1018.9 1018.9 0.0
22/07:30pm 23.3 21.4 17.7 71 3.5 SSE 24 30 13 16 1018.7 1018.7 0.0
22/07:00pm 23.3 21.3 17.5 70 3.6 SSE 24 30 13 16 1018.4 1018.4 0.0
22/06:30pm 23.4 21.9 17.6 70 3.6 S 22 28 12 15 1018.1 1018.1 0.0
22/06:00pm 23.5 21.9 17.5 69 3.7 SSE 22 28 12 15 1017.6 1017.6 0.0
22/05:30pm 24.1 22.2 17.6 67 4.0 SSE 24 28 13 15 1017.4 1017.4 0.0
22/05:00pm 24.1 22.7 16.6 63 4.6 SSE 19 24 10 13 1017.0 1017.0 0.0
22/04:30pm 24.6 23.2 16.6 61 4.9 S 19 22 10 12 1017.2 1017.2 0.0
22/04:00pm 24.7 23.1 15.9 58 5.3 S 19 22 10 12 1017.4 1017.4 0.0
22/03:30pm 25.2 23.8 16.6 59 5.3 S 19 22 10 12 1017.5 1017.5 0.0
22/03:00pm 26.2 25.2 15.6 52 6.4 S 15 19 8 10 1017.3 1017.3 0.0
22/02:30pm 25.3 24.3 15.6 55 5.9 S 15 17 8 9 1017.4 1017.4 0.0
22/02:00pm 26.8 25.8 14.5 46 7.4 SSW 13 15 7 8 1017.6 1017.6 0.0
22/01:30pm 25.7 24.5 13.9 48 7.0 SSW 13 15 7 8 1018.0 1018.0 0.0
22/01:00pm 26.0 25.0 14.5 49 6.9 S 13 15 7 8 1018.1 1018.1 0.0
22/12:30pm 25.4 24.5 14.8 52 6.3 SSE 13 15 7 8 1018.6 1018.6 0.0
22/12:00pm 26.5 26.4 13.3 44 7.7 ESE 6 13 3 7 1018.9 1018.9 0.0
22/11:30am 25.9 24.9 12.4 43 7.8 ESE 9 13 5 7 1019.1 1019.1 0.0
22/11:00am 25.3 24.3 13.5 48 6.9 E 11 15 6 8 1019.3 1019.3 0.0
22/10:30am 25.3 23.9 14.4 50 6.5 E 15 17 8 9 1019.3 1019.3 0.0
22/10:00am 25.3 23.9 14.4 50 6.5 ENE 15 19 8 10 1019.5 1019.5 0.0
22/09:30am 24.3 22.6 14.7 55 5.7 ENE 17 19 9 10 1019.5 1019.5 0.0
22/09:00am 23.7 21.9 14.4 56 5.5 ENE 17 20 9 11 1019.5 1019.5 0.0
22/08:30am 23.4 21.6 14.4 57 5.3 ENE 17 20 9 11 1019.5 1019.5 0.0
22/08:00am 22.6 20.8 14.4 60 4.8 E 17 20 9 11 1019.4 1019.4 0.0
22/07:30am 22.6 20.3 14.2 59 4.9 E 19 22 10 12 1019.2 1019.2 0.0
22/07:00am 22.2 20.3 14.3 61 4.6 E 17 22 9 12 1019.0 1019.0 0.0
22/06:30am 22.1 19.9 14.5 62 4.5 E 19 20 10 11 1018.9 1018.9 0.0
22/06:00am 22.0 19.6 14.4 62 4.4 E 20 24 11 13 1018.5 1018.5 0.0
22/05:30am 22.1 19.6 14.2 61 4.6 E 20 26 11 14 1018.4 1018.4 0.0
22/05:00am 22.2 18.7 13.5 57 5.0 E 24 30 13 16 1018.3 1018.3 0.0
22/04:30am 22.4 18.2 13.5 57 5.1 E 28 33 15 18 1018.2 1018.2 0.0
22/04:00am 22.4 18.5 14.3 60 4.7 E 28 35 15 19 1018.3 1018.3 0.0
22/03:30am 22.4 17.9 13.7 58 5.0 E 30 37 16 20 1018.3 1018.3 0.0
22/03:00am 22.6 18.1 13.9 58 5.1 E 30 37 16 20 1018.4 1018.4 0.0
22/02:30am 22.6 18.0 14.7 61 4.7 E 32 39 17 21 1018.5 1018.5 0.0
22/02:00am 22.5 18.5 15.1 63 4.4 ESE 30 39 16 21 1018.6 1018.6 0.0
22/01:30am 22.7 18.4 15.5 64 4.3 ESE 32 39 17 21 1018.6 1018.6 0.0
22/01:00am 23.0 19.2 16.8 68 3.8 ESE 32 39 17 21 1018.8 1018.8 0.0
22/12:30am 22.6 19.4 18.6 78 2.5 SE 33 41 18 22 1018.8 1018.8 0.0
22/12:00am 22.5 19.7 19.1 81 2.2 SE 32 43 17 23 1019.1 1019.1 0.0
 
Date/Time
WST
Temp
°C
App
Temp
°C
Dew
Point
°C
Rel
Hum
%
Delta-T
°C
Wind Press
QNH
hPa
Press
MSL
hPa
Rain since
9am
mm
Dir  Spd
km/h
Gust
km/h
Spd
kts
Gust
kts
21/11:30pm 22.4 19.6 19.0 81 2.2 SE 32 43 17 23 1019.5 1019.5 0.0
21/11:00pm 22.6 18.7 18.8 79 2.4 SE 37 46 20 25 1019.8 1019.8 0.0
21/10:30pm 22.6 19.2 19.0 80 2.3 SE 35 43 19 23 1020.0 1020.0 0.0
21/10:00pm 22.7 19.5 18.7 78 2.5 SE 33 43 18 23 1020.3 1020.3 0.0
21/09:30pm 22.7 19.1 18.5 77 2.6 SE 35 44 19 24 1020.3 1020.3 0.0
21/09:00pm 22.8 18.6 18.1 75 2.9 SE 37 46 20 25 1020.2 1020.2 0.0
21/08:30pm 22.8 18.5 17.7 73 3.2 SE 37 48 20 26 1020.1 1020.1 0.0
21/08:00pm 23.0 18.1 18.1 74 3.1 SE 41 50 22 27 1020.0 1020.0 0.0
21/07:30pm 23.0 18.4 18.1 74 3.1 SSE 39 50 21 27 1019.7 1019.7 0.0
21/07:00pm 23.2 19.5 18.3 74 3.1 SSE 35 46 19 25 1019.4 1019.4 0.0
21/06:30pm 23.5 19.0 16.5 65 4.3 SSE 35 44 19 24 1019.2 1019.2 0.0
21/06:00pm 23.7 19.1 16.2 63 4.6 SSE 35 44 19 24 1018.9 1018.9 0.0
21/05:30pm 24.1 19.5 16.1 61 4.9 SSE 35 43 19 23 1018.8 1018.8 0.0
21/05:00pm 24.5 20.2 16.0 59 5.2 SSE 33 43 18 23 1018.6 1018.6 0.0
21/04:30pm 25.1 20.9 15.7 56 5.7 SSE 32 41 17 22 1018.6 1018.6 0.0
21/04:00pm 25.7 21.7 16.3 56 5.8 SSE 32 41 17 22 1018.6 1018.6 0.0
21/03:30pm 26.0 21.8 15.7 53 6.3 SSE 32 37 17 20 1018.6 1018.6 0.0
21/03:00pm 26.3 22.4 15.4 51 6.6 SE 30 39 16 21 1018.6 1018.6 0.0
21/02:30pm 26.3 21.7 14.7 48 7.0 SE 32 41 17 22 1018.6 1018.6 0.0
21/02:00pm 26.8 22.4 15.2 49 7.0 SE 32 39 17 21 1018.9 1018.9 0.0
21/01:30pm 26.2 21.6 15.0 50 6.7 SE 33 41 18 22 1019.1 1019.1 0.0
21/01:00pm 26.2 22.0 15.6 52 6.4 SE 32 39 17 21 1019.4 1019.4 0.0
21/12:30pm 26.3 21.8 15.0 49 6.8 SE 32 37 17 20 1019.8 1019.8 0.0
21/12:00pm 26.2 22.1 15.9 53 6.3 SE 32 39 17 21 1020.1 1020.1 0.0
21/11:30am 25.1 20.7 15.1 53 6.0 SE 32 39 17 21 1020.1 1020.1 0.0
21/11:00am 25.1 20.7 15.1 53 6.0 SE 32 39 17 21 1020.2 1020.2 0.0
21/10:30am 24.6 20.2 15.2 55 5.6 SE 32 41 17 22 1020.2 1020.2 0.0
21/10:00am 24.5 19.9 14.6 54 5.9 SE 32 39 17 21 1020.4 1020.4 0.0
21/09:30am 24.2 19.7 14.9 56 5.5 SE 32 39 17 21 1020.5 1020.5 0.0
21/09:00am 23.6 19.8 14.6 57 5.3 ESE 28 35 15 19 1020.4 1020.4 0.0
21/08:30am 23.2 19.3 14.5 58 5.1 ESE 28 39 15 21 1020.3 1020.3 0.0
21/08:00am 22.6 17.8 13.9 58 5.1 ESE 32 39 17 21 1019.9 1019.9 0.0
21/07:30am 22.0 17.3 14.4 62 4.5 ESE 32 41 17 22 1019.7 1019.7 0.0
21/07:00am 21.5 16.8 14.9 66 3.9 SE 33 41 18 22 1019.3 1019.3 0.0
21/06:30am 21.4 16.6 14.6 65 4.0 SE 33 43 18 23 1019.3 1019.3 0.0
21/06:00am 21.4 16.6 14.6 65 4.0 SE 33 43 18 23 1019.2 1019.2 0.0
21/05:30am 21.5 16.9 14.6 65 4.0 ESE 32 43 17 23 1019.0 1019.0 0.0
21/05:00am 21.5 16.3 14.4 64 4.1 ESE 35 46 19 25 1018.8 1018.8 0.0
21/04:30am 21.6 16.2 15.0 66 3.9 ESE 37 46 20 25 1018.6 1018.6 0.0
21/04:00am 21.7 16.5 15.5 68 3.7 ESE 37 48 20 26 1018.4 1018.4 0.0
21/03:30am 21.6 17.1 16.3 72 3.2 SE 35 46 19 25 1018.3 1018.3 0.0
21/03:00am 21.9 17.5 17.5 76 2.7 SE 37 48 20 26 1018.5 1018.5 0.0
21/02:30am 21.8 16.9 17.4 76 2.7 SE 39 48 21 26 1018.5 1018.5 0.0
21/02:00am 21.9 17.3 18.1 79 2.4 SE 39 46 21 25 1018.6 1018.6 0.0
21/01:30am 22.0 16.9 17.8 77 2.6 SE 41 54 22 29 1018.5 1018.5 0.0
21/01:00am 22.2 17.1 17.6 75 2.8 SE 41 54 22 29 1018.4 1018.4 0.0
21/12:30am 22.4 17.8 17.1 72 3.3 SE 37 48 20 26 1018.8 1018.8 0.0
21/12:00am 22.3 17.2 16.8 71 3.4 SE 39 50 21 27 1019.1 1019.1 0.0
 
Date/Time
WST
Temp
°C
App
Temp
°C
Dew
Point
°C
Rel
Hum
%
Delta-T
°C
Wind Press
QNH
hPa
Press
MSL
hPa
Rain since
9am
mm
Dir  Spd
km/h
Gust
km/h
Spd
kts
Gust
kts
20/11:30pm 22.4 17.3 16.7 70 3.5 SSE 39 48 21 26 1019.5 1019.5 0.0
20/11:00pm 22.4 17.5 16.4 69 3.6 SSE 37 46 20 25 1019.6 1019.6 0.0

Other formats

Comma delimited format used in spreadsheet applications
http://www.bom.gov.au/fwo/IDW60801/IDW60801.94405.axf

JavaScript Object Notation format (JSON) in row-major order
http://www.bom.gov.au/fwo/IDW60801/IDW60801.94405.json

Data quality

Most of these data are generated automatically and are frequently updated. Quality checks on data are not normally performed. It is possible for incorrect values to appear. Refer to information at About Latest Weather Observations and please check the disclaimer before using these data.